sensor_id;sensor_type;location;lat;lon;timestamp;P1;durP1;ratioP1;P2;durP2;ratioP2
5847;SDS011;8756;49.29324300;8.70599800;2023-02-01T00:00:15;14.93;;;6.77;;
5847;SDS011;8756;49.29324300;8.70599800;2023-02-01T00:02:41;16.87;;;7.83;;
5847;SDS011;8756;49.29324300;8.70599800;2023-02-01T00:05:07;13.20;;;6.23;;
5847;SDS011;8756;49.29324300;8.70599800;2023-02-01T00:07:34;14.53;;;7.27;;
5847;SDS011;8756;49.29324300;8.70599800;2023-02-01T00:10:01;15.83;;;7.37;;
5847;SDS011;8756;49.29324300;8.70599800;2023-02-01T00:12:29;17.23;;;7.47;;
5847;SDS011;8756;49.29324300;8.70599800;2023-02-01T00:14:55;16.73;;;7.60;;
5847;SDS011;8756;49.29324300;8.70599800;2023-02-01T00:17:21;13.50;;;6.30;;
5847;SDS011;8756;49.29324300;8.70599800;2023-02-01T00:19:46;15.90;;;7.50;;
5847;SDS011;8756;49.29324300;8.70599800;2023-02-01T00:22:12;16.73;;;7.17;;
5847;SDS011;8756;49.29324300;8.70599800;2023-02-01T00:24:37;13.83;;;7.50;;
5847;SDS011;8756;49.29324300;8.70599800;2023-02-01T00:27:03;15.57;;;6.80;;
5847;SDS011;8756;49.29324300;8.70599800;2023-02-01T00:29:29;16.57;;;7.30;;
5847;SDS011;8756;49.29324300;8.70599800;2023-02-01T00:31:54;18.03;;;8.00;;
5847;SDS011;8756;49.29324300;8.70599800;2023-02-01T00:34:20;14.43;;;7.60;;
5847;SDS011;8756;49.29324300;8.70599800;2023-02-01T00:36:46;15.00;;;6.90;;
5847;SDS011;8756;49.29324300;8.70599800;2023-02-01T00:39:13;16.60;;;7.63;;
5847;SDS011;8756;49.29324300;8.70599800;2023-02-01T00:41:39;14.90;;;7.10;;
5847;SDS011;8756;49.29324300;8.70599800;2023-02-01T00:44:05;15.67;;;6.30;;
5847;SDS011;8756;49.29324300;8.70599800;2023-02-01T00:46:31;14.43;;;7.47;;
5847;SDS011;8756;49.29324300;8.70599800;2023-02-01T00:48:57;17.90;;;7.20;;
5847;SDS011;8756;49.29324300;8.70599800;2023-02-01T00:51:24;14.60;;;8.10;;
5847;SDS011;8756;49.29324300;8.70599800;2023-02-01T00:53:51;15.23;;;7.17;;
5847;SDS011;8756;49.29324300;8.70599800;2023-02-01T00:56:18;13.20;;;6.87;;
5847;SDS011;8756;49.29324300;8.70599800;2023-02-01T00:58:44;16.50;;;6.80;;
5847;SDS011;8756;49.29324300;8.70599800;2023-02-01T01:01:17;13.00;;;6.80;;
5847;SDS011;8756;49.29324300;8.70599800;2023-02-01T01:03:48;13.70;;;6.70;;
5847;SDS011;8756;49.29324300;8.70599800;2023-02-01T01:06:17;13.17;;;7.20;;
5847;SDS011;8756;49.29324300;8.70599800;2023-02-01T01:08:47;13.90;;;7.80;;
5847;SDS011;8756;49.29324300;8.70599800;2023-02-01T01:11:16;13.80;;;7.33;;
5847;SDS011;8756;49.29324300;8.70599800;2023-02-01T01:13:46;19.00;;;8.30;;
5847;SDS011;8756;49.29324300;8.70599800;2023-02-01T01:16:13;15.37;;;7.70;;
5847;SDS011;8756;49.29324300;8.70599800;2023-02-01T01:18:39;13.90;;;7.53;;
5847;SDS011;8756;49.29324300;8.70599800;2023-02-01T01:21:06;15.27;;;6.87;;
5847;SDS011;8756;49.29324300;8.70599800;2023-02-01T01:23:34;14.33;;;7.37;;
5847;SDS011;8756;49.29324300;8.70599800;2023-02-01T01:26:00;13.30;;;6.97;;
5847;SDS011;8756;49.29324300;8.70599800;2023-02-01T01:28:33;15.30;;;6.87;;
5847;SDS011;8756;49.29324300;8.70599800;2023-02-01T01:30:59;13.10;;;6.27;;
5847;SDS011;8756;49.29324300;8.70599800;2023-02-01T01:33:25;16.60;;;7.50;;
5847;SDS011;8756;49.29324300;8.70599800;2023-02-01T01:35:50;15.90;;;6.50;;
5847;SDS011;8756;49.29324300;8.70599800;2023-02-01T01:38:16;15.13;;;7.67;;
5847;SDS011;8756;49.29324300;8.70599800;2023-02-01T01:40:45;13.60;;;6.27;;
5847;SDS011;8756;49.29324300;8.70599800;2023-02-01T01:43:15;14.70;;;7.00;;
5847;SDS011;8756;49.29324300;8.70599800;2023-02-01T01:45:44;13.23;;;6.23;;
5847;SDS011;8756;49.29324300;8.70599800;2023-02-01T01:48:14;13.20;;;6.70;;
5847;SDS011;8756;49.29324300;8.70599800;2023-02-01T01:50:54;14.37;;;7.10;;
5847;SDS011;8756;49.29324300;8.70599800;2023-02-01T01:53:45;15.33;;;7.50;;
5847;SDS011;8756;49.29324300;8.70599800;2023-02-01T01:56:26;16.40;;;8.17;;
5847;SDS011;8756;49.29324300;8.70599800;2023-02-01T01:58:53;14.23;;;6.57;;
5847;SDS011;8756;49.29324300;8.70599800;2023-02-01T02:01:19;16.20;;;8.10;;
5847;SDS011;8756;49.29324300;8.70599800;2023-02-01T02:03:45;19.33;;;7.77;;
5847;SDS011;8756;49.29324300;8.70599800;2023-02-01T02:06:21;13.80;;;8.43;;
5847;SDS011;8756;49.29324300;8.70599800;2023-02-01T02:09:10;13.97;;;7.87;;
5847;SDS011;8756;49.29324300;8.70599800;2023-02-01T02:11:37;14.93;;;7.60;;
5847;SDS011;8756;49.29324300;8.70599800;2023-02-01T02:14:03;16.70;;;7.87;;
5847;SDS011;8756;49.29324300;8.70599800;2023-02-01T02:26:04;14.80;;;7.40;;
5847;SDS011;8756;49.29324300;8.70599800;2023-02-01T02:29:20;16.00;;;8.57;;
5847;SDS011;8756;49.29324300;8.70599800;2023-02-01T02:35:59;12.97;;;6.67;;
5847;SDS011;8756;49.29324300;8.70599800;2023-02-01T02:38:15;14.43;;;7.23;;
5847;SDS011;8756;49.29324300;8.70599800;2023-02-01T02:41:02;17.30;;;7.67;;
5847;SDS011;8756;49.29324300;8.70599800;2023-02-01T02:43:59;14.83;;;7.73;;
5847;SDS011;8756;49.29324300;8.70599800;2023-02-01T02:48:05;14.70;;;7.20;;
5847;SDS011;8756;49.29324300;8.70599800;2023-02-01T02:52:58;13.97;;;6.73;;
5847;SDS011;8756;49.29324300;8.70599800;2023-02-01T02:56:08;13.17;;;6.43;;
5847;SDS011;8756;49.29324300;8.70599800;2023-02-01T02:58:55;13.47;;;5.83;;
5847;SDS011;8756;49.29324300;8.70599800;2023-02-01T03:01:40;12.80;;;6.33;;
5847;SDS011;8756;49.29324300;8.70599800;2023-02-01T03:04:25;13.57;;;6.27;;
5847;SDS011;8756;49.29324300;8.70599800;2023-02-01T03:06:51;13.20;;;6.13;;
5847;SDS011;8756;49.29324300;8.70599800;2023-02-01T03:09:31;13.63;;;7.07;;
5847;SDS011;8756;49.29324300;8.70599800;2023-02-01T03:12:01;15.27;;;8.10;;
5847;SDS011;8756;49.29324300;8.70599800;2023-02-01T03:14:54;14.87;;;6.50;;
5847;SDS011;8756;49.29324300;8.70599800;2023-02-01T03:17:30;14.27;;;6.43;;
5847;SDS011;8756;49.29324300;8.70599800;2023-02-01T03:20:01;14.20;;;7.37;;
5847;SDS011;8756;49.29324300;8.70599800;2023-02-01T03:22:28;13.40;;;7.10;;
5847;SDS011;8756;49.29324300;8.70599800;2023-02-01T03:25:01;16.60;;;6.83;;
5847;SDS011;8756;49.29324300;8.70599800;2023-02-01T03:27:34;14.73;;;6.77;;
5847;SDS011;8756;49.29324300;8.70599800;2023-02-01T03:32:53;17.37;;;8.17;;
5847;SDS011;8756;49.29324300;8.70599800;2023-02-01T03:41:09;13.40;;;6.57;;
5847;SDS011;8756;49.29324300;8.70599800;2023-02-01T03:43:58;13.47;;;6.43;;
5847;SDS011;8756;49.29324300;8.70599800;2023-02-01T03:46:38;14.07;;;7.47;;
5847;SDS011;8756;49.29324300;8.70599800;2023-02-01T03:49:11;17.30;;;8.00;;
5847;SDS011;8756;49.29324300;8.70599800;2023-02-01T03:51:44;15.17;;;7.57;;
5847;SDS011;8756;49.29324300;8.70599800;2023-02-01T03:54:11;15.70;;;7.43;;
5847;SDS011;8756;49.29324300;8.70599800;2023-02-01T03:56:40;14.00;;;6.30;;
5847;SDS011;8756;49.29324300;8.70599800;2023-02-01T03:59:09;14.50;;;6.80;;
5847;SDS011;8756;49.29324300;8.70599800;2023-02-01T04:01:36;16.43;;;6.63;;
5847;SDS011;8756;49.29324300;8.70599800;2023-02-01T04:04:02;17.30;;;7.53;;
5847;SDS011;8756;49.29324300;8.70599800;2023-02-01T04:06:27;15.80;;;7.90;;
5847;SDS011;8756;49.29324300;8.70599800;2023-02-01T04:08:53;12.80;;;6.60;;
5847;SDS011;8756;49.29324300;8.70599800;2023-02-01T04:11:19;14.90;;;7.10;;
5847;SDS011;8756;49.29324300;8.70599800;2023-02-01T04:13:44;13.73;;;7.53;;
5847;SDS011;8756;49.29324300;8.70599800;2023-02-01T04:16:10;15.07;;;7.43;;
5847;SDS011;8756;49.29324300;8.70599800;2023-02-01T04:18:36;14.30;;;6.67;;
5847;SDS011;8756;49.29324300;8.70599800;2023-02-01T04:21:01;14.60;;;7.60;;
5847;SDS011;8756;49.29324300;8.70599800;2023-02-01T04:23:28;15.20;;;8.10;;
5847;SDS011;8756;49.29324300;8.70599800;2023-02-01T04:25:58;15.87;;;7.27;;
5847;SDS011;8756;49.29324300;8.70599800;2023-02-01T04:28:25;14.20;;;7.17;;
5847;SDS011;8756;49.29324300;8.70599800;2023-02-01T04:30:51;13.07;;;7.00;;
5847;SDS011;8756;49.29324300;8.70599800;2023-02-01T04:33:17;16.20;;;7.00;;
5847;SDS011;8756;49.29324300;8.70599800;2023-02-01T04:35:42;15.03;;;7.40;;
5847;SDS011;8756;49.29324300;8.70599800;2023-02-01T04:38:08;16.93;;;7.23;;
5847;SDS011;8756;49.29324300;8.70599800;2023-02-01T04:40:33;14.57;;;7.13;;
5847;SDS011;8756;49.29324300;8.70599800;2023-02-01T04:43:02;14.37;;;6.70;;
5847;SDS011;8756;49.29324300;8.70599800;2023-02-01T04:45:34;14.87;;;7.80;;
5847;SDS011;8756;49.29324300;8.70599800;2023-02-01T04:48:00;14.20;;;7.03;;
5847;SDS011;8756;49.29324300;8.70599800;2023-02-01T04:50:26;15.77;;;7.20;;
5847;SDS011;8756;49.29324300;8.70599800;2023-02-01T04:52:51;17.83;;;7.40;;
5847;SDS011;8756;49.29324300;8.70599800;2023-02-01T04:55:17;15.43;;;6.87;;
5847;SDS011;8756;49.29324300;8.70599800;2023-02-01T04:57:43;14.90;;;6.83;;
5847;SDS011;8756;49.29324300;8.70599800;2023-02-01T05:00:31;13.87;;;7.40;;
5847;SDS011;8756;49.29324300;8.70599800;2023-02-01T05:03:00;16.30;;;5.80;;
5847;SDS011;8756;49.29324300;8.70599800;2023-02-01T05:05:26;13.73;;;6.33;;
5847;SDS011;8756;49.29324300;8.70599800;2023-02-01T05:07:52;12.50;;;6.90;;
5847;SDS011;8756;49.29324300;8.70599800;2023-02-01T05:10:18;14.90;;;7.30;;
5847;SDS011;8756;49.29324300;8.70599800;2023-02-01T05:12:44;13.60;;;6.30;;
5847;SDS011;8756;49.29324300;8.70599800;2023-02-01T05:15:29;15.00;;;6.50;;
5847;SDS011;8756;49.29324300;8.70599800;2023-02-01T05:17:55;13.33;;;6.60;;
5847;SDS011;8756;49.29324300;8.70599800;2023-02-01T05:20:21;12.20;;;5.63;;
5847;SDS011;8756;49.29324300;8.70599800;2023-02-01T05:22:47;11.67;;;6.13;;
5847;SDS011;8756;49.29324300;8.70599800;2023-02-01T05:25:13;13.20;;;6.27;;
5847;SDS011;8756;49.29324300;8.70599800;2023-02-01T05:27:39;16.90;;;7.70;;
5847;SDS011;8756;49.29324300;8.70599800;2023-02-01T05:30:05;11.70;;;6.37;;
5847;SDS011;8756;49.29324300;8.70599800;2023-02-01T05:32:34;14.23;;;6.90;;
5847;SDS011;8756;49.29324300;8.70599800;2023-02-01T05:35:00;14.47;;;7.67;;
5847;SDS011;8756;49.29324300;8.70599800;2023-02-01T05:37:26;15.87;;;6.83;;
5847;SDS011;8756;49.29324300;8.70599800;2023-02-01T05:39:51;13.80;;;6.50;;
5847;SDS011;8756;49.29324300;8.70599800;2023-02-01T05:42:17;13.57;;;6.60;;
5847;SDS011;8756;49.29324300;8.70599800;2023-02-01T05:44:43;14.90;;;7.47;;
5847;SDS011;8756;49.29324300;8.70599800;2023-02-01T05:47:09;15.73;;;7.10;;
5847;SDS011;8756;49.29324300;8.70599800;2023-02-01T05:49:35;16.17;;;7.00;;
5847;SDS011;8756;49.29324300;8.70599800;2023-02-01T05:52:00;16.00;;;7.40;;
5847;SDS011;8756;49.29324300;8.70599800;2023-02-01T05:54:26;13.90;;;6.90;;
5847;SDS011;8756;49.29324300;8.70599800;2023-02-01T05:56:52;14.77;;;7.57;;
5847;SDS011;8756;49.29324300;8.70599800;2023-02-01T05:59:18;15.87;;;8.23;;
5847;SDS011;8756;49.29324300;8.70599800;2023-02-01T06:01:43;14.63;;;6.90;;
5847;SDS011;8756;49.29324300;8.70599800;2023-02-01T06:04:09;14.10;;;6.57;;
5847;SDS011;8756;49.29324300;8.70599800;2023-02-01T06:06:35;17.97;;;7.47;;
5847;SDS011;8756;49.29324300;8.70599800;2023-02-01T06:09:01;15.50;;;7.17;;
5847;SDS011;8756;49.29324300;8.70599800;2023-02-01T06:11:28;14.07;;;8.00;;
5847;SDS011;8756;49.29324300;8.70599800;2023-02-01T06:13:54;20.33;;;8.73;;
5847;SDS011;8756;49.29324300;8.70599800;2023-02-01T06:16:20;17.53;;;9.47;;
5847;SDS011;8756;49.29324300;8.70599800;2023-02-01T06:18:47;17.43;;;8.70;;
5847;SDS011;8756;49.29324300;8.70599800;2023-02-01T06:21:12;18.60;;;8.90;;
5847;SDS011;8756;49.29324300;8.70599800;2023-02-01T06:23:40;21.83;;;9.10;;
5847;SDS011;8756;49.29324300;8.70599800;2023-02-01T06:26:07;17.50;;;7.87;;
5847;SDS011;8756;49.29324300;8.70599800;2023-02-01T06:28:34;16.73;;;8.10;;
5847;SDS011;8756;49.29324300;8.70599800;2023-02-01T06:31:05;18.53;;;9.10;;
5847;SDS011;8756;49.29324300;8.70599800;2023-02-01T06:33:35;13.80;;;7.80;;
5847;SDS011;8756;49.29324300;8.70599800;2023-02-01T06:36:02;20.57;;;9.53;;
5847;SDS011;8756;49.29324300;8.70599800;2023-02-01T06:38:31;19.40;;;8.90;;
5847;SDS011;8756;49.29324300;8.70599800;2023-02-01T06:40:59;16.23;;;7.87;;
5847;SDS011;8756;49.29324300;8.70599800;2023-02-01T06:43:26;16.67;;;9.10;;
5847;SDS011;8756;49.29324300;8.70599800;2023-02-01T06:45:53;15.83;;;7.33;;
5847;SDS011;8756;49.29324300;8.70599800;2023-02-01T06:48:24;17.67;;;9.60;;
5847;SDS011;8756;49.29324300;8.70599800;2023-02-01T06:50:49;20.87;;;9.67;;
5847;SDS011;8756;49.29324300;8.70599800;2023-02-01T06:53:15;15.97;;;8.50;;
5847;SDS011;8756;49.29324300;8.70599800;2023-02-01T06:55:41;15.33;;;8.20;;
5847;SDS011;8756;49.29324300;8.70599800;2023-02-01T06:58:06;17.50;;;9.00;;
5847;SDS011;8756;49.29324300;8.70599800;2023-02-01T07:00:32;21.63;;;8.37;;
5847;SDS011;8756;49.29324300;8.70599800;2023-02-01T07:02:57;18.10;;;8.87;;
5847;SDS011;8756;49.29324300;8.70599800;2023-02-01T07:05:24;21.27;;;9.50;;
5847;SDS011;8756;49.29324300;8.70599800;2023-02-01T07:07:50;15.33;;;8.40;;
5847;SDS011;8756;49.29324300;8.70599800;2023-02-01T07:10:16;21.20;;;8.50;;
5847;SDS011;8756;49.29324300;8.70599800;2023-02-01T07:12:42;19.20;;;9.40;;
5847;SDS011;8756;49.29324300;8.70599800;2023-02-01T07:15:07;16.80;;;8.87;;
5847;SDS011;8756;49.29324300;8.70599800;2023-02-01T07:17:33;20.17;;;9.23;;
5847;SDS011;8756;49.29324300;8.70599800;2023-02-01T07:19:59;19.40;;;8.83;;
5847;SDS011;8756;49.29324300;8.70599800;2023-02-01T07:22:26;15.97;;;8.80;;
5847;SDS011;8756;49.29324300;8.70599800;2023-02-01T07:24:52;18.60;;;8.90;;
5847;SDS011;8756;49.29324300;8.70599800;2023-02-01T07:27:17;17.10;;;9.10;;
5847;SDS011;8756;49.29324300;8.70599800;2023-02-01T07:29:44;17.33;;;8.10;;
5847;SDS011;8756;49.29324300;8.70599800;2023-02-01T07:32:10;17.70;;;8.63;;
5847;SDS011;8756;49.29324300;8.70599800;2023-02-01T07:34:36;17.17;;;8.93;;
5847;SDS011;8756;49.29324300;8.70599800;2023-02-01T07:37:01;16.63;;;7.50;;
5847;SDS011;8756;49.29324300;8.70599800;2023-02-01T07:39:27;16.53;;;8.60;;
5847;SDS011;8756;49.29324300;8.70599800;2023-02-01T07:41:53;18.57;;;7.60;;
5847;SDS011;8756;49.29324300;8.70599800;2023-02-01T07:44:19;21.53;;;9.57;;
5847;SDS011;8756;49.29324300;8.70599800;2023-02-01T07:46:47;17.50;;;8.33;;
5847;SDS011;8756;49.29324300;8.70599800;2023-02-01T07:49:14;17.80;;;8.47;;
5847;SDS011;8756;49.29324300;8.70599800;2023-02-01T07:51:39;18.43;;;9.03;;
5847;SDS011;8756;49.29324300;8.70599800;2023-02-01T07:54:05;19.90;;;8.50;;
5847;SDS011;8756;49.29324300;8.70599800;2023-02-01T07:56:31;19.10;;;10.83;;
5847;SDS011;8756;49.29324300;8.70599800;2023-02-01T07:58:56;19.50;;;10.67;;
5847;SDS011;8756;49.29324300;8.70599800;2023-02-01T08:01:25;19.57;;;9.40;;
5847;SDS011;8756;49.29324300;8.70599800;2023-02-01T08:03:54;18.90;;;9.30;;
5847;SDS011;8756;49.29324300;8.70599800;2023-02-01T08:06:24;20.13;;;8.63;;
5847;SDS011;8756;49.29324300;8.70599800;2023-02-01T08:08:51;17.70;;;10.13;;
5847;SDS011;8756;49.29324300;8.70599800;2023-02-01T08:11:18;16.63;;;9.60;;
5847;SDS011;8756;49.29324300;8.70599800;2023-02-01T08:13:45;17.63;;;9.60;;
5847;SDS011;8756;49.29324300;8.70599800;2023-02-01T08:16:12;19.77;;;8.37;;
5847;SDS011;8756;49.29324300;8.70599800;2023-02-01T08:18:39;20.60;;;9.83;;
5847;SDS011;8756;49.29324300;8.70599800;2023-02-01T08:23:36;26.23;;;10.10;;
5847;SDS011;8756;49.29324300;8.70599800;2023-02-01T08:26:14;21.77;;;11.13;;
5847;SDS011;8756;49.29324300;8.70599800;2023-02-01T08:28:47;17.80;;;9.90;;
5847;SDS011;8756;49.29324300;8.70599800;2023-02-01T08:31:20;24.33;;;11.37;;
5847;SDS011;8756;49.29324300;8.70599800;2023-02-01T08:33:48;23.40;;;10.00;;
5847;SDS011;8756;49.29324300;8.70599800;2023-02-01T08:36:17;22.90;;;10.57;;
5847;SDS011;8756;49.29324300;8.70599800;2023-02-01T08:38:44;24.07;;;10.60;;
5847;SDS011;8756;49.29324300;8.70599800;2023-02-01T08:41:10;21.60;;;10.43;;
5847;SDS011;8756;49.29324300;8.70599800;2023-02-01T08:43:39;22.23;;;10.50;;
5847;SDS011;8756;49.29324300;8.70599800;2023-02-01T08:46:05;22.97;;;10.17;;
5847;SDS011;8756;49.29324300;8.70599800;2023-02-01T08:48:32;19.63;;;10.73;;
5847;SDS011;8756;49.29324300;8.70599800;2023-02-01T08:51:06;21.37;;;9.40;;
5847;SDS011;8756;49.29324300;8.70599800;2023-02-01T08:53:34;19.27;;;9.70;;
5847;SDS011;8756;49.29324300;8.70599800;2023-02-01T08:56:01;21.67;;;10.17;;
5847;SDS011;8756;49.29324300;8.70599800;2023-02-01T08:58:27;22.90;;;10.10;;
5847;SDS011;8756;49.29324300;8.70599800;2023-02-01T09:00:53;20.13;;;8.37;;
5847;SDS011;8756;49.29324300;8.70599800;2023-02-01T09:03:19;19.20;;;9.73;;
5847;SDS011;8756;49.29324300;8.70599800;2023-02-01T09:05:44;28.17;;;9.80;;
5847;SDS011;8756;49.29324300;8.70599800;2023-02-01T09:08:10;20.83;;;9.63;;
5847;SDS011;8756;49.29324300;8.70599800;2023-02-01T09:10:40;23.93;;;8.90;;
5847;SDS011;8756;49.29324300;8.70599800;2023-02-01T09:13:07;24.90;;;9.30;;
5847;SDS011;8756;49.29324300;8.70599800;2023-02-01T09:15:33;23.13;;;9.50;;
5847;SDS011;8756;49.29324300;8.70599800;2023-02-01T09:17:59;22.57;;;8.47;;
5847;SDS011;8756;49.29324300;8.70599800;2023-02-01T09:20:25;17.33;;;7.50;;
5847;SDS011;8756;49.29324300;8.70599800;2023-02-01T09:22:51;22.33;;;8.43;;
5847;SDS011;8756;49.29324300;8.70599800;2023-02-01T09:25:18;20.40;;;8.67;;
5847;SDS011;8756;49.29324300;8.70599800;2023-02-01T09:27:43;16.30;;;8.23;;
5847;SDS011;8756;49.29324300;8.70599800;2023-02-01T09:30:09;18.67;;;8.63;;
5847;SDS011;8756;49.29324300;8.70599800;2023-02-01T09:32:36;19.77;;;7.93;;
5847;SDS011;8756;49.29324300;8.70599800;2023-02-01T09:35:01;18.67;;;8.10;;
5847;SDS011;8756;49.29324300;8.70599800;2023-02-01T09:37:27;18.10;;;7.90;;
5847;SDS011;8756;49.29324300;8.70599800;2023-02-01T09:39:54;25.50;;;7.60;;
5847;SDS011;8756;49.29324300;8.70599800;2023-02-01T09:42:44;19.90;;;7.97;;
5847;SDS011;8756;49.29324300;8.70599800;2023-02-01T09:48:39;22.20;;;7.90;;
5847;SDS011;8756;49.29324300;8.70599800;2023-02-01T09:51:11;24.63;;;8.17;;
5847;SDS011;8756;49.29324300;8.70599800;2023-02-01T09:53:47;17.23;;;8.10;;
5847;SDS011;8756;49.29324300;8.70599800;2023-02-01T09:56:24;23.07;;;8.40;;
5847;SDS011;8756;49.29324300;8.70599800;2023-02-01T09:59:14;21.67;;;8.73;;
5847;SDS011;8756;49.29324300;8.70599800;2023-02-01T10:01:56;25.47;;;8.17;;
5847;SDS011;8756;49.29324300;8.70599800;2023-02-01T10:04:24;13.60;;;6.27;;
5847;SDS011;8756;49.29324300;8.70599800;2023-02-01T10:07:02;29.33;;;8.23;;
5847;SDS011;8756;49.29324300;8.70599800;2023-02-01T10:09:47;18.53;;;6.43;;
5847;SDS011;8756;49.29324300;8.70599800;2023-02-01T10:26:42;15.57;;;6.27;;
5847;SDS011;8756;49.29324300;8.70599800;2023-02-01T10:29:21;25.57;;;6.20;;
5847;SDS011;8756;49.29324300;8.70599800;2023-02-01T10:31:50;22.03;;;6.67;;
5847;SDS011;8756;49.29324300;8.70599800;2023-02-01T10:34:18;23.20;;;5.97;;
5847;SDS011;8756;49.29324300;8.70599800;2023-02-01T10:36:52;19.30;;;7.00;;
5847;SDS011;8756;49.29324300;8.70599800;2023-02-01T10:39:21;20.10;;;6.20;;
5847;SDS011;8756;49.29324300;8.70599800;2023-02-01T10:41:48;17.07;;;6.00;;
5847;SDS011;8756;49.29324300;8.70599800;2023-02-01T10:44:15;17.80;;;5.50;;
5847;SDS011;8756;49.29324300;8.70599800;2023-02-01T10:46:51;16.70;;;6.20;;
5847;SDS011;8756;49.29324300;8.70599800;2023-02-01T10:49:22;20.00;;;6.43;;
5847;SDS011;8756;49.29324300;8.70599800;2023-02-01T10:52:20;19.93;;;6.60;;
5847;SDS011;8756;49.29324300;8.70599800;2023-02-01T10:58:00;17.33;;;6.23;;
5847;SDS011;8756;49.29324300;8.70599800;2023-02-01T11:00:33;19.03;;;6.60;;
5847;SDS011;8756;49.29324300;8.70599800;2023-02-01T11:05:55;17.97;;;6.17;;
5847;SDS011;8756;49.29324300;8.70599800;2023-02-01T11:08:21;22.77;;;6.73;;
5847;SDS011;8756;49.29324300;8.70599800;2023-02-01T11:10:49;23.90;;;6.90;;
5847;SDS011;8756;49.29324300;8.70599800;2023-02-01T11:13:30;22.90;;;6.93;;
5847;SDS011;8756;49.29324300;8.70599800;2023-02-01T11:16:01;19.37;;;5.67;;
5847;SDS011;8756;49.29324300;8.70599800;2023-02-01T11:18:29;20.87;;;7.20;;
5847;SDS011;8756;49.29324300;8.70599800;2023-02-01T11:21:02;23.93;;;7.30;;
5847;SDS011;8756;49.29324300;8.70599800;2023-02-01T11:23:30;18.00;;;7.13;;
5847;SDS011;8756;49.29324300;8.70599800;2023-02-01T11:26:01;18.33;;;7.40;;
5847;SDS011;8756;49.29324300;8.70599800;2023-02-01T11:28:39;21.83;;;6.70;;
5847;SDS011;8756;49.29324300;8.70599800;2023-02-01T11:31:12;21.63;;;6.00;;
5847;SDS011;8756;49.29324300;8.70599800;2023-02-01T11:33:41;20.60;;;6.67;;
5847;SDS011;8756;49.29324300;8.70599800;2023-02-01T11:36:16;26.10;;;7.23;;
5847;SDS011;8756;49.29324300;8.70599800;2023-02-01T11:38:46;29.10;;;7.47;;
5847;SDS011;8756;49.29324300;8.70599800;2023-02-01T11:41:42;19.83;;;6.17;;
5847;SDS011;8756;49.29324300;8.70599800;2023-02-01T11:44:22;18.73;;;7.17;;
5847;SDS011;8756;49.29324300;8.70599800;2023-02-01T11:47:23;19.80;;;6.03;;
5847;SDS011;8756;49.29324300;8.70599800;2023-02-01T11:49:56;25.23;;;7.80;;
5847;SDS011;8756;49.29324300;8.70599800;2023-02-01T11:58:41;24.83;;;7.60;;
5847;SDS011;8756;49.29324300;8.70599800;2023-02-01T12:02:03;17.83;;;6.20;;
5847;SDS011;8756;49.29324300;8.70599800;2023-02-01T12:13:39;20.67;;;6.00;;
5847;SDS011;8756;49.29324300;8.70599800;2023-02-01T12:18:58;22.50;;;6.63;;
5847;SDS011;8756;49.29324300;8.70599800;2023-02-01T12:33:15;29.20;;;6.60;;
5847;SDS011;8756;49.29324300;8.70599800;2023-02-01T12:41:25;19.07;;;6.30;;
5847;SDS011;8756;49.29324300;8.70599800;2023-02-01T12:44:08;15.60;;;6.40;;
5847;SDS011;8756;49.29324300;8.70599800;2023-02-01T12:46:58;19.80;;;5.73;;
5847;SDS011;8756;49.29324300;8.70599800;2023-02-01T12:49:52;18.10;;;5.87;;
5847;SDS011;8756;49.29324300;8.70599800;2023-02-01T12:52:38;19.00;;;6.00;;
5847;SDS011;8756;49.29324300;8.70599800;2023-02-01T12:55:23;25.83;;;5.60;;
5847;SDS011;8756;49.29324300;8.70599800;2023-02-01T13:00:54;19.17;;;6.03;;
5847;SDS011;8756;49.29324300;8.70599800;2023-02-01T13:03:55;19.43;;;6.23;;
5847;SDS011;8756;49.29324300;8.70599800;2023-02-01T13:12:32;30.70;;;6.03;;
5847;SDS011;8756;49.29324300;8.70599800;2023-02-01T13:17:42;16.50;;;5.13;;
5847;SDS011;8756;49.29324300;8.70599800;2023-02-01T13:23:01;25.47;;;6.77;;
5847;SDS011;8756;49.29324300;8.70599800;2023-02-01T13:25:46;23.80;;;5.37;;
5847;SDS011;8756;49.29324300;8.70599800;2023-02-01T13:28:24;18.97;;;5.33;;
5847;SDS011;8756;49.29324300;8.70599800;2023-02-01T13:45:55;25.63;;;5.70;;
5847;SDS011;8756;49.29324300;8.70599800;2023-02-01T13:51:10;23.80;;;6.27;;
5847;SDS011;8756;49.29324300;8.70599800;2023-02-01T13:53:38;17.10;;;4.80;;
5847;SDS011;8756;49.29324300;8.70599800;2023-02-01T13:56:13;15.93;;;5.10;;
5847;SDS011;8756;49.29324300;8.70599800;2023-02-01T13:58:44;15.70;;;5.57;;
5847;SDS011;8756;49.29324300;8.70599800;2023-02-01T14:03:51;21.30;;;4.90;;
5847;SDS011;8756;49.29324300;8.70599800;2023-02-01T14:09:35;13.90;;;5.60;;
5847;SDS011;8756;49.29324300;8.70599800;2023-02-01T14:17:50;15.50;;;4.53;;
5847;SDS011;8756;49.29324300;8.70599800;2023-02-01T14:23:13;24.37;;;5.40;;
5847;SDS011;8756;49.29324300;8.70599800;2023-02-01T14:25:42;18.67;;;6.03;;
5847;SDS011;8756;49.29324300;8.70599800;2023-02-01T14:28:10;17.97;;;5.40;;
5847;SDS011;8756;49.29324300;8.70599800;2023-02-01T14:31:29;16.07;;;6.40;;
5847;SDS011;8756;49.29324300;8.70599800;2023-02-01T14:34:50;15.80;;;5.43;;
5847;SDS011;8756;49.29324300;8.70599800;2023-02-01T14:37:01;20.73;;;6.00;;
5847;SDS011;8756;49.29324300;8.70599800;2023-02-01T14:39:34;17.93;;;5.77;;
5847;SDS011;8756;49.29324300;8.70599800;2023-02-01T14:42:15;19.17;;;5.87;;
5847;SDS011;8756;49.29324300;8.70599800;2023-02-01T14:44:53;16.67;;;4.70;;
5847;SDS011;8756;49.29324300;8.70599800;2023-02-01T14:49:59;15.93;;;5.27;;
5847;SDS011;8756;49.29324300;8.70599800;2023-02-01T14:52:40;20.03;;;4.80;;
5847;SDS011;8756;49.29324300;8.70599800;2023-02-01T15:01:16;15.90;;;5.23;;
5847;SDS011;8756;49.29324300;8.70599800;2023-02-01T15:04:09;16.43;;;5.33;;
5847;SDS011;8756;49.29324300;8.70599800;2023-02-01T15:06:50;15.40;;;5.07;;
5847;SDS011;8756;49.29324300;8.70599800;2023-02-01T15:09:24;21.07;;;5.60;;
5847;SDS011;8756;49.29324300;8.70599800;2023-02-01T15:14:38;16.73;;;5.20;;
5847;SDS011;8756;49.29324300;8.70599800;2023-02-01T15:17:20;24.43;;;5.90;;
5847;SDS011;8756;49.29324300;8.70599800;2023-02-01T15:19:53;15.83;;;5.77;;
5847;SDS011;8756;49.29324300;8.70599800;2023-02-01T15:22:21;23.87;;;5.60;;
5847;SDS011;8756;49.29324300;8.70599800;2023-02-01T15:24:54;14.30;;;4.90;;
5847;SDS011;8756;49.29324300;8.70599800;2023-02-01T15:27:22;20.30;;;5.53;;
5847;SDS011;8756;49.29324300;8.70599800;2023-02-01T15:29:49;16.23;;;4.70;;
5847;SDS011;8756;49.29324300;8.70599800;2023-02-01T15:32:28;14.07;;;4.67;;
5847;SDS011;8756;49.29324300;8.70599800;2023-02-01T15:35:05;17.17;;;5.47;;
5847;SDS011;8756;49.29324300;8.70599800;2023-02-01T15:40:54;16.50;;;5.00;;
5847;SDS011;8756;49.29324300;8.70599800;2023-02-01T15:46:30;16.50;;;6.10;;
5847;SDS011;8756;49.29324300;8.70599800;2023-02-01T15:49:00;19.57;;;6.37;;
5847;SDS011;8756;49.29324300;8.70599800;2023-02-01T15:51:27;20.90;;;5.20;;